sensor_id;sensor_type;location;lat;lon;timestamp;P1;durP1;ratioP1;P2;durP2;ratioP2
27576;SDS011;15011;53.380;10.034;2022-10-16T00:02:47;14.85;;;10.35;;
27576;SDS011;15011;53.380;10.034;2022-10-16T00:07:47;17.63;;;12.40;;
27576;SDS011;15011;53.380;10.034;2022-10-16T00:12:47;13.27;;;10.57;;
27576;SDS011;15011;53.380;10.034;2022-10-16T00:17:48;18.35;;;10.95;;
27576;SDS011;15011;53.380;10.034;2022-10-16T00:22:49;18.50;;;10.43;;
27576;SDS011;15011;53.380;10.034;2022-10-16T00:27:49;18.52;;;11.65;;
27576;SDS011;15011;53.380;10.034;2022-10-16T00:32:49;16.08;;;9.25;;
27576;SDS011;15011;53.380;10.034;2022-10-16T00:37:50;16.88;;;8.40;;
27576;SDS011;15011;53.380;10.034;2022-10-16T00:42:50;19.92;;;8.65;;
27576;SDS011;15011;53.380;10.034;2022-10-16T00:47:51;12.30;;;7.70;;
27576;SDS011;15011;53.380;10.034;2022-10-16T00:52:52;12.57;;;7.30;;
27576;SDS011;15011;53.380;10.034;2022-10-16T00:57:53;15.63;;;7.68;;
27576;SDS011;15011;53.380;10.034;2022-10-16T01:02:54;10.93;;;6.50;;
27576;SDS011;15011;53.380;10.034;2022-10-16T01:07:58;12.05;;;6.28;;
27576;SDS011;15011;53.380;10.034;2022-10-16T01:13:07;12.68;;;6.00;;
27576;SDS011;15011;53.380;10.034;2022-10-16T01:18:25;8.25;;;5.07;;
27576;SDS011;15011;53.380;10.034;2022-10-16T01:23:36;9.35;;;4.63;;
27576;SDS011;15011;53.380;10.034;2022-10-16T01:34:02;7.10;;;4.07;;
27576;SDS011;15011;53.380;10.034;2022-10-16T01:39:05;8.32;;;3.60;;
27576;SDS011;15011;53.380;10.034;2022-10-16T01:44:51;8.43;;;3.80;;
27576;SDS011;15011;53.380;10.034;2022-10-16T01:49:33;12.25;;;3.63;;
27576;SDS011;15011;53.380;10.034;2022-10-16T01:54:35;6.75;;;3.08;;
27576;SDS011;15011;53.380;10.034;2022-10-16T01:59:40;11.40;;;3.17;;
27576;SDS011;15011;53.380;10.034;2022-10-16T02:04:46;10.02;;;3.05;;
27576;SDS011;15011;53.380;10.034;2022-10-16T02:09:49;6.50;;;2.90;;
27576;SDS011;15011;53.380;10.034;2022-10-16T02:14:49;5.97;;;2.38;;
27576;SDS011;15011;53.380;10.034;2022-10-16T02:19:50;6.00;;;2.43;;
27576;SDS011;15011;53.380;10.034;2022-10-16T02:24:59;6.05;;;2.63;;
27576;SDS011;15011;53.380;10.034;2022-10-16T02:30:05;9.02;;;2.65;;
27576;SDS011;15011;53.380;10.034;2022-10-16T02:35:13;6.18;;;2.78;;
27576;SDS011;15011;53.380;10.034;2022-10-16T02:40:15;7.78;;;2.15;;
27576;SDS011;15011;53.380;10.034;2022-10-16T02:45:17;4.60;;;1.90;;
27576;SDS011;15011;53.380;10.034;2022-10-16T02:50:17;6.45;;;2.15;;
27576;SDS011;15011;53.380;10.034;2022-10-16T02:55:18;6.35;;;2.35;;
27576;SDS011;15011;53.380;10.034;2022-10-16T03:00:19;10.98;;;2.42;;
27576;SDS011;15011;53.380;10.034;2022-10-16T03:05:20;4.63;;;1.83;;
27576;SDS011;15011;53.380;10.034;2022-10-16T03:10:20;2.97;;;2.00;;
27576;SDS011;15011;53.380;10.034;2022-10-16T03:15:21;6.93;;;2.33;;
27576;SDS011;15011;53.380;10.034;2022-10-16T03:20:21;3.85;;;2.15;;
27576;SDS011;15011;53.380;10.034;2022-10-16T03:25:22;5.40;;;2.03;;
27576;SDS011;15011;53.380;10.034;2022-10-16T03:30:22;7.30;;;2.13;;
27576;SDS011;15011;53.380;10.034;2022-10-16T03:35:23;6.55;;;2.10;;
27576;SDS011;15011;53.380;10.034;2022-10-16T03:40:24;8.18;;;2.20;;
27576;SDS011;15011;53.380;10.034;2022-10-16T03:45:25;6.78;;;1.98;;
27576;SDS011;15011;53.380;10.034;2022-10-16T03:50:26;6.15;;;2.00;;
27576;SDS011;15011;53.380;10.034;2022-10-16T03:55:26;7.72;;;2.17;;
27576;SDS011;15011;53.380;10.034;2022-10-16T04:00:27;7.80;;;1.77;;
27576;SDS011;15011;53.380;10.034;2022-10-16T04:05:27;5.05;;;1.77;;
27576;SDS011;15011;53.380;10.034;2022-10-16T04:10:28;4.40;;;1.80;;
27576;SDS011;15011;53.380;10.034;2022-10-16T04:15:28;7.85;;;2.00;;
27576;SDS011;15011;53.380;10.034;2022-10-16T04:20:28;4.18;;;1.92;;
27576;SDS011;15011;53.380;10.034;2022-10-16T04:25:30;4.22;;;1.50;;
27576;SDS011;15011;53.380;10.034;2022-10-16T04:30:30;5.07;;;1.98;;
27576;SDS011;15011;53.380;10.034;2022-10-16T04:35:31;5.75;;;2.00;;
27576;SDS011;15011;53.380;10.034;2022-10-16T04:40:31;6.57;;;2.15;;
27576;SDS011;15011;53.380;10.034;2022-10-16T04:45:38;8.80;;;1.70;;
27576;SDS011;15011;53.380;10.034;2022-10-16T04:50:38;6.63;;;1.80;;
27576;SDS011;15011;53.380;10.034;2022-10-16T04:55:39;7.07;;;2.13;;
27576;SDS011;15011;53.380;10.034;2022-10-16T05:00:39;7.07;;;2.00;;
27576;SDS011;15011;53.380;10.034;2022-10-16T05:05:43;6.30;;;1.95;;
27576;SDS011;15011;53.380;10.034;2022-10-16T05:10:44;9.02;;;2.17;;
27576;SDS011;15011;53.380;10.034;2022-10-16T05:15:48;7.43;;;2.70;;
27576;SDS011;15011;53.380;10.034;2022-10-16T05:20:48;4.32;;;2.38;;
27576;SDS011;15011;53.380;10.034;2022-10-16T05:25:55;7.80;;;2.60;;
27576;SDS011;15011;53.380;10.034;2022-10-16T05:30:58;13.02;;;2.50;;
27576;SDS011;15011;53.380;10.034;2022-10-16T05:36:05;8.75;;;2.53;;
27576;SDS011;15011;53.380;10.034;2022-10-16T05:41:07;5.50;;;2.10;;
27576;SDS011;15011;53.380;10.034;2022-10-16T05:46:08;5.93;;;2.58;;
27576;SDS011;15011;53.380;10.034;2022-10-16T05:51:09;3.60;;;2.17;;
27576;SDS011;15011;53.380;10.034;2022-10-16T05:56:11;8.27;;;2.45;;
27576;SDS011;15011;53.380;10.034;2022-10-16T06:01:14;8.02;;;3.92;;
27576;SDS011;15011;53.380;10.034;2022-10-16T06:06:17;79.40;;;27.15;;
27576;SDS011;15011;53.380;10.034;2022-10-16T06:16:20;23.00;;;7.47;;
27576;SDS011;15011;53.380;10.034;2022-10-16T06:21:21;8.60;;;3.40;;
27576;SDS011;15011;53.380;10.034;2022-10-16T06:26:25;8.15;;;2.70;;
27576;SDS011;15011;53.380;10.034;2022-10-16T06:31:27;7.43;;;3.20;;
27576;SDS011;15011;53.380;10.034;2022-10-16T06:36:30;7.72;;;3.25;;
27576;SDS011;15011;53.380;10.034;2022-10-16T06:41:31;9.65;;;3.10;;
27576;SDS011;15011;53.380;10.034;2022-10-16T06:46:31;7.20;;;3.13;;
27576;SDS011;15011;53.380;10.034;2022-10-16T06:51:32;6.93;;;3.40;;
27576;SDS011;15011;53.380;10.034;2022-10-16T06:56:34;14.15;;;3.88;;
27576;SDS011;15011;53.380;10.034;2022-10-16T07:01:35;11.50;;;4.10;;
27576;SDS011;15011;53.380;10.034;2022-10-16T07:06:35;10.88;;;4.78;;
27576;SDS011;15011;53.380;10.034;2022-10-16T07:11:36;10.32;;;4.35;;
27576;SDS011;15011;53.380;10.034;2022-10-16T07:16:38;9.20;;;3.80;;
27576;SDS011;15011;53.380;10.034;2022-10-16T07:21:39;5.27;;;3.60;;
27576;SDS011;15011;53.380;10.034;2022-10-16T07:26:40;7.47;;;3.47;;
27576;SDS011;15011;53.380;10.034;2022-10-16T07:31:41;11.30;;;3.47;;
27576;SDS011;15011;53.380;10.034;2022-10-16T07:36:42;9.95;;;3.22;;
27576;SDS011;15011;53.380;10.034;2022-10-16T07:41:43;5.47;;;2.92;;
27576;SDS011;15011;53.380;10.034;2022-10-16T07:46:43;9.75;;;2.80;;
27576;SDS011;15011;53.380;10.034;2022-10-16T07:51:43;7.00;;;2.28;;
27576;SDS011;15011;53.380;10.034;2022-10-16T07:56:44;4.82;;;2.72;;
27576;SDS011;15011;53.380;10.034;2022-10-16T08:01:44;5.95;;;2.30;;
27576;SDS011;15011;53.380;10.034;2022-10-16T08:06:45;6.63;;;2.35;;
27576;SDS011;15011;53.380;10.034;2022-10-16T08:11:45;6.80;;;2.58;;
27576;SDS011;15011;53.380;10.034;2022-10-16T08:16:46;6.47;;;1.98;;
27576;SDS011;15011;53.380;10.034;2022-10-16T08:21:49;5.72;;;2.03;;
27576;SDS011;15011;53.380;10.034;2022-10-16T08:26:50;4.60;;;1.90;;
27576;SDS011;15011;53.380;10.034;2022-10-16T08:31:50;6.65;;;1.85;;
27576;SDS011;15011;53.380;10.034;2022-10-16T08:36:52;5.18;;;2.08;;
27576;SDS011;15011;53.380;10.034;2022-10-16T08:47:19;3.85;;;1.70;;
27576;SDS011;15011;53.380;10.034;2022-10-16T08:52:24;3.22;;;2.00;;
27576;SDS011;15011;53.380;10.034;2022-10-16T08:57:27;4.97;;;1.80;;
27576;SDS011;15011;53.380;10.034;2022-10-16T09:02:35;3.83;;;1.73;;
27576;SDS011;15011;53.380;10.034;2022-10-16T09:07:49;3.65;;;1.65;;
27576;SDS011;15011;53.380;10.034;2022-10-16T09:13:23;4.47;;;1.60;;
27576;SDS011;15011;53.380;10.034;2022-10-16T09:18:35;3.60;;;1.65;;
27576;SDS011;15011;53.380;10.034;2022-10-16T09:23:41;4.68;;;1.38;;
27576;SDS011;15011;53.380;10.034;2022-10-16T09:28:41;2.40;;;1.40;;
27576;SDS011;15011;53.380;10.034;2022-10-16T09:33:42;4.78;;;1.35;;
27576;SDS011;15011;53.380;10.034;2022-10-16T09:38:44;5.03;;;1.83;;
27576;SDS011;15011;53.380;10.034;2022-10-16T09:48:59;4.60;;;1.10;;
27576;SDS011;15011;53.380;10.034;2022-10-16T09:54:02;2.72;;;1.10;;
27576;SDS011;15011;53.380;10.034;2022-10-16T09:59:14;2.28;;;1.25;;
27576;SDS011;15011;53.380;10.034;2022-10-16T10:04:19;4.97;;;0.98;;
27576;SDS011;15011;53.380;10.034;2022-10-16T10:14:34;8.02;;;1.58;;
27576;SDS011;15011;53.380;10.034;2022-10-16T10:19:38;3.35;;;1.10;;
27576;SDS011;15011;53.380;10.034;2022-10-16T10:24:40;2.97;;;1.30;;
27576;SDS011;15011;53.380;10.034;2022-10-16T10:29:53;7.00;;;1.20;;
27576;SDS011;15011;53.380;10.034;2022-10-16T10:45:44;4.70;;;1.10;;
27576;SDS011;15011;53.380;10.034;2022-10-16T11:07:32;4.35;;;0.93;;
27576;SDS011;15011;53.380;10.034;2022-10-16T11:12:36;3.33;;;1.02;;
27576;SDS011;15011;53.380;10.034;2022-10-16T11:18:27;3.67;;;1.30;;
27576;SDS011;15011;53.380;10.034;2022-10-16T11:28:53;7.97;;;1.20;;
27576;SDS011;15011;53.380;10.034;2022-10-16T11:39:26;4.47;;;1.00;;
27576;SDS011;15011;53.380;10.034;2022-10-16T11:44:37;3.65;;;0.95;;
27576;SDS011;15011;53.380;10.034;2022-10-16T11:50:28;3.55;;;0.90;;
27576;SDS011;15011;53.380;10.034;2022-10-16T11:55:33;2.08;;;0.88;;
27576;SDS011;15011;53.380;10.034;2022-10-16T12:00:39;3.78;;;0.90;;
27576;SDS011;15011;53.380;10.034;2022-10-16T12:10:52;4.63;;;1.17;;
27576;SDS011;15011;53.380;10.034;2022-10-16T12:21:14;4.05;;;1.20;;
27576;SDS011;15011;53.380;10.034;2022-10-16T12:31:36;2.55;;;1.00;;
27576;SDS011;15011;53.380;10.034;2022-10-16T12:36:37;5.18;;;0.93;;
27576;SDS011;15011;53.380;10.034;2022-10-16T12:41:38;4.03;;;1.33;;
27576;SDS011;15011;53.380;10.034;2022-10-16T12:46:40;5.05;;;1.25;;
27576;SDS011;15011;53.380;10.034;2022-10-16T12:51:41;5.88;;;1.20;;
27576;SDS011;15011;53.380;10.034;2022-10-16T13:18:17;6.10;;;1.30;;
27576;SDS011;15011;53.380;10.034;2022-10-16T13:28:32;4.88;;;1.10;;
27576;SDS011;15011;53.380;10.034;2022-10-16T13:38:38;8.27;;;1.40;;
27576;SDS011;15011;53.380;10.034;2022-10-16T13:43:42;8.38;;;1.30;;
27576;SDS011;15011;53.380;10.034;2022-10-16T13:48:55;7.63;;;1.17;;
27576;SDS011;15011;53.380;10.034;2022-10-16T13:53:57;4.03;;;1.00;;
27576;SDS011;15011;53.380;10.034;2022-10-16T13:59:05;15.38;;;1.52;;
27576;SDS011;15011;53.380;10.034;2022-10-16T14:04:07;6.57;;;1.20;;
27576;SDS011;15011;53.380;10.034;2022-10-16T14:09:30;7.75;;;1.20;;
27576;SDS011;15011;53.380;10.034;2022-10-16T14:14:33;6.88;;;1.35;;
27576;SDS011;15011;53.380;10.034;2022-10-16T14:19:36;6.03;;;1.17;;
27576;SDS011;15011;53.380;10.034;2022-10-16T14:24:36;7.70;;;1.23;;
27576;SDS011;15011;53.380;10.034;2022-10-16T14:29:37;4.97;;;1.08;;
27576;SDS011;15011;53.380;10.034;2022-10-16T14:34:38;9.80;;;1.10;;
27576;SDS011;15011;53.380;10.034;2022-10-16T14:39:40;4.85;;;0.88;;
27576;SDS011;15011;53.380;10.034;2022-10-16T14:44:41;4.40;;;1.35;;
27576;SDS011;15011;53.380;10.034;2022-10-16T14:49:41;4.47;;;1.15;;
27576;SDS011;15011;53.380;10.034;2022-10-16T14:54:42;5.90;;;1.42;;
27576;SDS011;15011;53.380;10.034;2022-10-16T14:59:43;7.38;;;1.42;;
27576;SDS011;15011;53.380;10.034;2022-10-16T15:04:46;5.32;;;1.30;;
27576;SDS011;15011;53.380;10.034;2022-10-16T15:09:47;5.43;;;1.05;;
27576;SDS011;15011;53.380;10.034;2022-10-16T15:14:47;5.55;;;1.20;;
27576;SDS011;15011;53.380;10.034;2022-10-16T15:19:48;6.27;;;1.57;;
27576;SDS011;15011;53.380;10.034;2022-10-16T15:24:48;4.38;;;1.00;;
27576;SDS011;15011;53.380;10.034;2022-10-16T15:29:49;5.82;;;1.00;;
27576;SDS011;15011;53.380;10.034;2022-10-16T15:34:49;11.93;;;1.83;;
27576;SDS011;15011;53.380;10.034;2022-10-16T15:39:50;5.82;;;2.00;;
27576;SDS011;15011;53.380;10.034;2022-10-16T15:44:50;6.60;;;1.55;;
27576;SDS011;15011;53.380;10.034;2022-10-16T15:49:51;9.07;;;3.10;;
27576;SDS011;15011;53.380;10.034;2022-10-16T15:54:51;10.50;;;1.50;;
27576;SDS011;15011;53.380;10.034;2022-10-16T15:59:51;5.15;;;1.42;;
27576;SDS011;15011;53.380;10.034;2022-10-16T16:04:52;4.10;;;1.10;;
27576;SDS011;15011;53.380;10.034;2022-10-16T16:09:53;9.07;;;1.58;;
27576;SDS011;15011;53.380;10.034;2022-10-16T16:14:53;6.20;;;1.55;;
27576;SDS011;15011;53.380;10.034;2022-10-16T16:19:54;7.60;;;1.50;;
27576;SDS011;15011;53.380;10.034;2022-10-16T16:24:54;8.68;;;1.55;;
27576;SDS011;15011;53.380;10.034;2022-10-16T16:29:55;5.90;;;1.23;;
27576;SDS011;15011;53.380;10.034;2022-10-16T16:34:56;9.35;;;1.50;;
27576;SDS011;15011;53.380;10.034;2022-10-16T16:39:56;7.18;;;2.10;;
27576;SDS011;15011;53.380;10.034;2022-10-16T16:44:58;7.80;;;1.92;;
27576;SDS011;15011;53.380;10.034;2022-10-16T16:49:59;9.35;;;1.67;;
27576;SDS011;15011;53.380;10.034;2022-10-16T16:54:59;12.90;;;1.92;;
27576;SDS011;15011;53.380;10.034;2022-10-16T17:00:00;9.60;;;2.22;;
27576;SDS011;15011;53.380;10.034;2022-10-16T17:05:00;9.77;;;3.17;;
27576;SDS011;15011;53.380;10.034;2022-10-16T17:10:01;8.70;;;3.70;;
27576;SDS011;15011;53.380;10.034;2022-10-16T17:15:02;10.88;;;3.55;;
27576;SDS011;15011;53.380;10.034;2022-10-16T17:20:02;13.88;;;4.40;;
27576;SDS011;15011;53.380;10.034;2022-10-16T17:25:03;10.32;;;4.68;;
27576;SDS011;15011;53.380;10.034;2022-10-16T17:30:05;12.20;;;5.28;;
27576;SDS011;15011;53.380;10.034;2022-10-16T17:35:06;13.10;;;6.57;;
27576;SDS011;15011;53.380;10.034;2022-10-16T17:40:08;17.17;;;6.00;;
27576;SDS011;15011;53.380;10.034;2022-10-16T17:45:09;14.47;;;5.77;;
27576;SDS011;15011;53.380;10.034;2022-10-16T17:50:10;9.52;;;5.57;;
27576;SDS011;15011;53.380;10.034;2022-10-16T17:55:10;13.13;;;4.82;;
27576;SDS011;15011;53.380;10.034;2022-10-16T18:00:11;11.15;;;4.97;;
27576;SDS011;15011;53.380;10.034;2022-10-16T18:05:12;11.45;;;5.10;;
27576;SDS011;15011;53.380;10.034;2022-10-16T18:10:12;11.38;;;5.15;;
27576;SDS011;15011;53.380;10.034;2022-10-16T18:15:13;12.70;;;5.07;;
27576;SDS011;15011;53.380;10.034;2022-10-16T18:20:13;16.77;;;6.25;;
27576;SDS011;15011;53.380;10.034;2022-10-16T18:25:14;12.75;;;5.18;;
27576;SDS011;15011;53.380;10.034;2022-10-16T18:30:14;14.48;;;5.75;;
27576;SDS011;15011;53.380;10.034;2022-10-16T18:35:15;15.10;;;7.32;;
27576;SDS011;15011;53.380;10.034;2022-10-16T18:40:15;25.95;;;9.07;;
27576;SDS011;15011;53.380;10.034;2022-10-16T18:45:16;23.23;;;11.35;;
27576;SDS011;15011;53.380;10.034;2022-10-16T18:50:16;24.17;;;13.40;;
27576;SDS011;15011;53.380;10.034;2022-10-16T18:55:17;21.35;;;9.77;;
27576;SDS011;15011;53.380;10.034;2022-10-16T19:00:18;19.40;;;9.45;;
27576;SDS011;15011;53.380;10.034;2022-10-16T19:05:18;29.50;;;10.13;;
27576;SDS011;15011;53.380;10.034;2022-10-16T19:10:19;20.30;;;8.77;;
27576;SDS011;15011;53.380;10.034;2022-10-16T19:15:19;17.67;;;8.65;;
27576;SDS011;15011;53.380;10.034;2022-10-16T19:20:21;18.20;;;8.40;;
27576;SDS011;15011;53.380;10.034;2022-10-16T19:25:21;15.38;;;7.25;;
27576;SDS011;15011;53.380;10.034;2022-10-16T19:30:22;20.65;;;7.72;;
27576;SDS011;15011;53.380;10.034;2022-10-16T19:35:23;20.98;;;7.63;;
27576;SDS011;15011;53.380;10.034;2022-10-16T19:40:25;28.83;;;12.75;;
27576;SDS011;15011;53.380;10.034;2022-10-16T19:45:26;40.50;;;19.23;;
27576;SDS011;15011;53.380;10.034;2022-10-16T19:50:27;19.92;;;8.27;;
27576;SDS011;15011;53.380;10.034;2022-10-16T19:55:29;16.15;;;6.47;;
27576;SDS011;15011;53.380;10.034;2022-10-16T20:00:30;17.75;;;7.45;;
27576;SDS011;15011;53.380;10.034;2022-10-16T20:05:31;46.17;;;21.50;;
27576;SDS011;15011;53.380;10.034;2022-10-16T20:10:31;317.02;;;114.32;;
27576;SDS011;15011;53.380;10.034;2022-10-16T20:15:31;225.95;;;79.18;;
27576;SDS011;15011;53.380;10.034;2022-10-16T20:20:35;27.17;;;10.52;;
27576;SDS011;15011;53.380;10.034;2022-10-16T20:25:37;44.05;;;16.42;;
27576;SDS011;15011;53.380;10.034;2022-10-16T20:30:40;13.17;;;6.60;;
27576;SDS011;15011;53.380;10.034;2022-10-16T20:35:43;19.08;;;10.40;;
27576;SDS011;15011;53.380;10.034;2022-10-16T20:40:46;20.52;;;8.93;;
27576;SDS011;15011;53.380;10.034;2022-10-16T20:45:47;16.83;;;8.23;;
27576;SDS011;15011;53.380;10.034;2022-10-16T20:50:58;12.88;;;5.78;;
27576;SDS011;15011;53.380;10.034;2022-10-16T20:55:59;14.50;;;5.88;;
27576;SDS011;15011;53.380;10.034;2022-10-16T21:06:27;15.20;;;7.60;;
27576;SDS011;15011;53.380;10.034;2022-10-16T21:11:32;22.85;;;10.55;;
27576;SDS011;15011;53.380;10.034;2022-10-16T21:16:33;21.35;;;9.23;;
27576;SDS011;15011;53.380;10.034;2022-10-16T21:21:35;17.95;;;9.52;;
27576;SDS011;15011;53.380;10.034;2022-10-16T21:26:37;24.58;;;11.35;;
27576;SDS011;15011;53.380;10.034;2022-10-16T21:31:37;27.48;;;10.13;;
27576;SDS011;15011;53.380;10.034;2022-10-16T21:36:38;17.98;;;8.15;;
27576;SDS011;15011;53.380;10.034;2022-10-16T21:41:41;13.77;;;5.88;;
27576;SDS011;15011;53.380;10.034;2022-10-16T21:46:43;11.68;;;5.28;;
27576;SDS011;15011;53.380;10.034;2022-10-16T21:51:45;17.63;;;6.53;;
27576;SDS011;15011;53.380;10.034;2022-10-16T21:56:47;20.30;;;6.65;;
27576;SDS011;15011;53.380;10.034;2022-10-16T22:01:47;16.70;;;4.95;;
27576;SDS011;15011;53.380;10.034;2022-10-16T22:06:48;16.58;;;5.57;;
27576;SDS011;15011;53.380;10.034;2022-10-16T22:11:48;18.33;;;5.53;;
27576;SDS011;15011;53.380;10.034;2022-10-16T22:16:49;18.23;;;5.47;;
27576;SDS011;15011;53.380;10.034;2022-10-16T22:21:52;17.23;;;5.37;;
27576;SDS011;15011;53.380;10.034;2022-10-16T22:26:56;13.63;;;5.65;;
27576;SDS011;15011;53.380;10.034;2022-10-16T22:31:56;11.83;;;4.40;;
27576;SDS011;15011;53.380;10.034;2022-10-16T22:36:56;10.68;;;4.60;;
27576;SDS011;15011;53.380;10.034;2022-10-16T22:41:57;9.75;;;3.42;;
27576;SDS011;15011;53.380;10.034;2022-10-16T22:46:57;12.80;;;3.88;;
27576;SDS011;15011;53.380;10.034;2022-10-16T22:51:58;9.57;;;3.80;;
27576;SDS011;15011;53.380;10.034;2022-10-16T22:56:58;11.68;;;3.88;;
27576;SDS011;15011;53.380;10.034;2022-10-16T23:01:59;13.98;;;3.72;;
27576;SDS011;15011;53.380;10.034;2022-10-16T23:06:59;12.68;;;3.72;;
27576;SDS011;15011;53.380;10.034;2022-10-16T23:12:00;9.63;;;3.58;;
27576;SDS011;15011;53.380;10.034;2022-10-16T23:17:01;23.33;;;4.38;;
27576;SDS011;15011;53.380;10.034;2022-10-16T23:22:01;11.48;;;4.63;;
27576;SDS011;15011;53.380;10.034;2022-10-16T23:27:02;16.33;;;4.57;;
27576;SDS011;15011;53.380;10.034;2022-10-16T23:32:02;7.93;;;4.25;;
27576;SDS011;15011;53.380;10.034;2022-10-16T23:37:03;12.35;;;3.88;;
27576;SDS011;15011;53.380;10.034;2022-10-16T23:42:05;9.68;;;4.10;;
27576;SDS011;15011;53.380;10.034;2022-10-16T23:47:06;13.88;;;4.50;;
27576;SDS011;15011;53.380;10.034;2022-10-16T23:52:06;14.90;;;4.57;;
27576;SDS011;15011;53.380;10.034;2022-10-16T23:57:06;15.32;;;4.72;;
